Time;durP1;ratioP1;P1;durP2;ratioP2;P2;SDS_P1;SDS_P2;PMS_P1;PMS_P2;Temp;Humidity;BMP_temperature;BMP_pressure;BME280_temperature;BME280_humidity;BME280_pressure;Samples;Min_cycle;Max_cycle;Signal;HPM_P1;HPM_P2
2023/11/12 00:00:41;;;;;;;4.57;2.23;;;7.10;98.00;;;;;;5011597;28;20447;-68
2023/11/12 00:03:08;;;;;;;4.77;2.40;;;7.20;98.00;;;;;;5011594;28;20562;-68
2023/11/12 00:05:36;;;;;;;3.87;2.57;;;7.20;98.00;;;;;;5012372;28;20804;-68
2023/11/12 00:08:04;;;;;;;3.97;2.70;;;7.20;98.00;;;;;;5012123;28;20483;-69
2023/11/12 00:10:32;;;;;;;3.60;2.30;;;7.20;98.00;;;;;;5012314;28;20955;-69
2023/11/12 00:13:00;;;;;;;5.30;2.70;;;7.20;98.00;;;;;;5011617;28;20463;-69
2023/11/12 00:15:27;;;;;;;3.20;2.20;;;7.10;98.00;;;;;;5012111;28;20452;-69
2023/11/12 00:17:55;;;;;;;3.57;2.40;;;7.20;98.00;;;;;;5012261;28;20460;-69
2023/11/12 00:20:24;;;;;;;4.57;2.50;;;7.10;98.00;;;;;;5010850;28;20539;-69
2023/11/12 00:22:51;;;;;;;6.37;2.50;;;7.00;98.00;;;;;;5012033;28;20452;-70
2023/11/12 00:25:20;;;;;;;3.30;2.10;;;7.00;98.00;;;;;;5011918;28;21094;-68
2023/11/12 00:27:49;;;;;;;5.10;2.23;;;7.00;98.00;;;;;;5011812;28;20459;-69
2023/11/12 00:30:17;;;;;;;3.60;1.93;;;7.10;98.00;;;;;;5014495;28;20470;-69
2023/11/12 00:32:46;;;;;;;5.57;2.40;;;7.10;98.00;;;;;;5015840;28;20452;-68
2023/11/12 00:35:14;;;;;;;2.60;1.90;;;7.20;98.00;;;;;;5014495;28;20461;-69
2023/11/12 00:37:42;;;;;;;4.67;2.43;;;7.10;98.00;;;;;;5014540;28;21229;-69
2023/11/12 00:40:10;;;;;;;5.10;2.60;;;7.00;98.00;;;;;;5015567;28;20486;-69
2023/11/12 00:42:39;;;;;;;6.97;2.87;;;7.00;98.00;;;;;;5015556;28;20442;-70
2023/11/12 00:45:09;;;;;;;2.90;2.10;;;6.80;98.00;;;;;;5014333;28;20490;-69
2023/11/12 00:47:36;;;;;;;3.90;2.60;;;6.90;98.00;;;;;;5014207;28;20456;-68
2023/11/12 00:50:04;;;;;;;4.67;2.50;;;7.00;98.00;;;;;;5015191;28;20463;-69
2023/11/12 00:52:31;;;;;;;3.10;2.27;;;7.00;98.00;;;;;;5015292;28;20460;-70
2023/11/12 00:54:58;;;;;;;3.90;2.30;;;6.80;98.00;;;;;;5013934;28;20449;-68
2023/11/12 00:57:25;;;;;;;3.40;2.30;;;6.70;98.00;;;;;;5015208;28;20489;-70
2023/11/12 00:59:52;;;;;;;5.27;2.50;;;6.70;98.00;;;;;;5014890;28;20927;-68
2023/11/12 01:02:21;;;;;;;4.83;2.43;;;6.60;98.00;;;;;;5014742;28;20975;-69
2023/11/12 01:04:49;;;;;;;6.93;2.50;;;6.60;98.00;;;;;;5015027;28;20457;-69
2023/11/12 01:07:17;;;;;;;3.93;2.27;;;6.50;98.00;;;;;;5014477;28;20456;-69
2023/11/12 01:09:46;;;;;;;3.20;2.40;;;6.40;98.00;;;;;;5013855;28;20455;-68
2023/11/12 01:12:13;;;;;;;5.70;2.40;;;6.40;98.00;;;;;;5014602;28;21162;-69
2023/11/12 01:14:40;;;;;;;3.50;2.53;;;6.40;98.00;;;;;;5014935;28;20536;-69
2023/11/12 01:17:10;;;;;;;3.87;2.40;;;6.40;98.00;;;;;;5014771;28;20963;-68
2023/11/12 01:19:39;;;;;;;5.80;3.10;;;6.50;98.00;;;;;;5013426;28;20505;-69
2023/11/12 01:22:06;;;;;;;5.80;2.80;;;6.50;98.00;;;;;;5014443;28;20457;-68
2023/11/12 01:24:34;;;;;;;5.77;2.83;;;6.60;98.00;;;;;;5014386;28;20458;-68
2023/11/12 01:27:02;;;;;;;5.90;2.83;;;6.60;98.00;;;;;;5014584;28;20481;-68
2023/11/12 01:29:29;;;;;;;7.77;3.00;;;6.60;98.00;;;;;;5013276;28;20483;-69
2023/11/12 01:31:56;;;;;;;6.70;2.90;;;6.60;98.00;;;;;;5014454;28;20513;-68
2023/11/12 01:34:23;;;;;;;7.50;2.83;;;6.60;98.00;;;;;;5014286;28;20449;-68
2023/11/12 01:36:56;;;;;;;6.47;2.57;;;6.80;98.00;;;;;;5014426;28;20463;-68
2023/11/12 01:39:23;;;;;;;5.47;2.70;;;6.80;98.00;;;;;;5014044;28;20492;-68
2023/11/12 01:41:51;;;;;;;4.33;2.37;;;6.80;98.00;;;;;;5013193;28;20950;-69
2023/11/12 01:44:18;;;;;;;5.80;2.50;;;6.70;98.00;;;;;;5014184;28;20463;-69
2023/11/12 01:46:45;;;;;;;4.00;2.30;;;6.70;98.00;;;;;;5013187;28;20459;-67
2023/11/12 01:49:13;;;;;;;4.07;2.30;;;6.60;98.00;;;;;;5014316;28;20452;-68
2023/11/12 01:51:40;;;;;;;4.30;2.40;;;6.70;98.00;;;;;;5014252;28;20852;-68
2023/11/12 01:54:09;;;;;;;3.27;2.20;;;6.70;98.00;;;;;;5013009;28;20458;-69
2023/11/12 01:56:37;;;;;;;4.47;2.60;;;6.80;98.00;;;;;;5013003;28;20462;-68
2023/11/12 01:59:06;;;;;;;4.40;2.23;;;6.80;98.00;;;;;;5012710;28;20846;-69
2023/11/12 02:01:33;;;;;;;3.67;2.27;;;6.80;98.00;;;;;;5013861;28;20480;-69
2023/11/12 02:04:02;;;;;;;3.73;2.43;;;7.00;98.00;;;;;;5012700;28;20524;-68
2023/11/12 02:06:30;;;;;;;3.40;2.43;;;7.00;98.00;;;;;;5014158;28;20487;-68
2023/11/12 02:08:58;;;;;;;4.43;2.60;;;7.00;98.00;;;;;;5014108;28;20469;-69
2023/11/12 02:11:27;;;;;;;3.20;2.23;;;7.00;98.00;;;;;;5012755;28;20829;-69
2023/11/12 02:13:56;;;;;;;3.70;2.13;;;6.90;98.00;;;;;;5012475;28;20466;-68
2023/11/12 02:16:23;;;;;;;5.40;2.60;;;6.90;98.00;;;;;;5012627;28;21056;-69
2023/11/12 02:18:50;;;;;;;4.27;2.40;;;6.90;98.00;;;;;;5013704;28;20456;-69
2023/11/12 02:21:24;;;;;;;2.50;2.23;;;7.00;98.00;;;;;;5013852;28;20453;-70
2023/11/12 02:23:52;;;;;;;3.53;2.00;;;6.90;98.00;;;;;;5013694;28;20464;-68
2023/11/12 02:26:20;;;;;;;5.00;2.70;;;6.90;98.00;;;;;;5013671;28;20466;-69
2023/11/12 02:28:47;;;;;;;4.20;2.23;;;6.90;98.00;;;;;;5012209;28;20448;-69
2023/11/12 02:31:14;;;;;;;3.23;2.40;;;6.80;98.00;;;;;;5013147;28;20974;-69
2023/11/12 02:33:41;;;;;;;2.17;2.00;;;6.80;98.00;;;;;;5013325;28;20954;-68
2023/11/12 02:36:10;;;;;;;3.57;2.40;;;6.70;98.00;;;;;;5013319;28;20461;-69
2023/11/12 02:38:37;;;;;;;8.17;2.50;;;6.70;98.00;;;;;;5012210;28;20491;-68
2023/11/12 02:41:09;;;;;;;3.60;2.47;;;6.60;98.00;;;;;;5012901;28;20489;-69
2023/11/12 02:43:37;;;;;;;9.13;2.20;;;6.70;98.00;;;;;;5013171;28;20947;-68
2023/11/12 02:46:04;;;;;;;4.00;2.37;;;6.70;98.00;;;;;;5013142;28;20453;-69
2023/11/12 02:48:56;;;;;;;3.60;2.10;;;6.70;98.00;;;;;;5012987;28;20467;-68
2023/11/12 02:51:23;;;;;;;3.00;2.07;;;6.70;98.00;;;;;;5012770;28;20504;-68
2023/11/12 02:53:50;;;;;;;3.10;2.33;;;6.60;98.00;;;;;;5012566;28;20453;-68
2023/11/12 02:56:18;;;;;;;5.47;2.47;;;6.80;98.00;;;;;;5011950;28;20448;-69
2023/11/12 02:58:45;;;;;;;3.97;2.27;;;6.80;98.00;;;;;;5012731;28;20452;-68
2023/11/12 03:01:13;;;;;;;6.13;2.43;;;6.70;98.00;;;;;;5012673;28;20499;-68
2023/11/12 03:03:41;;;;;;;3.07;2.03;;;6.90;98.00;;;;;;5012776;28;20465;-68
2023/11/12 03:06:08;;;;;;;4.97;2.30;;;6.90;98.00;;;;;;5012946;28;20950;-69
2023/11/12 03:08:35;;;;;;;3.80;2.50;;;7.00;98.00;;;;;;5012797;28;20459;-69
2023/11/12 03:11:02;;;;;;;4.13;2.30;;;6.80;98.00;;;;;;5012572;28;20452;-68
2023/11/12 03:13:31;;;;;;;4.73;2.47;;;6.70;98.00;;;;;;5012327;28;20472;-69
2023/11/12 03:15:58;;;;;;;5.10;2.20;;;6.70;98.00;;;;;;5012558;28;20452;-70
2023/11/12 03:18:25;;;;;;;4.50;2.23;;;6.80;98.00;;;;;;5012584;28;20469;-69
2023/11/12 03:20:53;;;;;;;4.37;2.43;;;6.70;98.00;;;;;;5011307;28;20479;-68
2023/11/12 03:23:20;;;;;;;4.10;2.43;;;6.50;98.00;;;;;;5011597;28;20888;-68
2023/11/12 03:25:48;;;;;;;3.50;2.30;;;6.30;98.00;;;;;;5012416;28;20460;-69
2023/11/12 03:28:15;;;;;;;3.30;2.03;;;6.10;98.00;;;;;;5012651;28;20459;-70
2023/11/12 03:30:44;;;;;;;7.40;3.40;;;6.00;98.00;;;;;;5012401;28;20454;-68
2023/11/12 03:33:11;;;;;;;4.27;2.10;;;5.90;98.00;;;;;;5012336;28;20955;-68
2023/11/12 03:35:38;;;;;;;9.57;3.37;;;5.70;98.00;;;;;;5012370;28;20502;-69
2023/11/12 03:38:05;;;;;;;10.50;4.40;;;5.70;98.00;;;;;;5011185;28;20458;-68
2023/11/12 03:40:32;;;;;;;7.53;3.10;;;5.60;98.00;;;;;;5012267;28;20522;-68
2023/11/12 03:43:01;;;;;;;4.43;2.30;;;5.60;98.00;;;;;;5012221;28;20464;-68
2023/11/12 03:45:29;;;;;;;5.17;2.47;;;5.60;98.00;;;;;;5012254;28;20452;-68
2023/11/12 03:47:57;;;;;;;4.10;2.60;;;5.50;98.00;;;;;;5012180;28;20464;-68
2023/11/12 03:50:24;;;;;;;16.17;5.47;;;5.60;98.00;;;;;;5012205;28;20458;-68
2023/11/12 03:52:51;;;;;;;8.17;3.70;;;5.40;98.00;;;;;;5012256;28;20479;-69
2023/11/12 03:55:18;;;;;;;8.57;3.60;;;5.30;98.00;;;;;;5012228;28;20543;-68
2023/11/12 03:57:45;;;;;;;4.87;2.90;;;5.40;98.00;;;;;;5012088;28;20456;-69
2023/11/12 04:00:14;;;;;;;9.43;3.07;;;5.30;98.00;;;;;;5012304;28;20835;-68
2023/11/12 04:02:42;;;;;;;3.90;2.50;;;5.00;98.00;;;;;;5012492;28;20455;-67
2023/11/12 04:05:10;;;;;;;6.40;2.60;;;4.70;98.00;;;;;;5011570;28;20459;-68
2023/11/12 04:07:38;;;;;;;4.40;2.10;;;4.60;98.00;;;;;;5011817;28;20468;-69
2023/11/12 04:10:06;;;;;;;3.77;2.37;;;4.80;98.00;;;;;;5012280;28;20455;-67
2023/11/12 04:12:33;;;;;;;4.10;2.43;;;5.00;98.00;;;;;;5010583;28;20461;-68
2023/11/12 04:15:00;;;;;;;4.63;2.20;;;4.90;98.00;;;;;;5010356;28;20455;-68
2023/11/12 04:17:28;;;;;;;37.40;8.80;;;4.70;98.00;;;;;;5011669;28;20456;-67
2023/11/12 04:19:57;;;;;;;25.27;8.63;;;4.60;98.00;;;;;;5011475;28;20519;-68
2023/11/12 04:22:26;;;;;;;11.80;4.17;;;4.60;98.00;;;;;;5011538;28;20446;-67
2023/11/12 04:24:53;;;;;;;6.50;3.10;;;4.50;98.00;;;;;;5011505;28;20448;-68
2023/11/12 04:27:21;;;;;;;3.93;2.23;;;4.50;98.00;;;;;;5011776;28;20499;-68
2023/11/12 04:29:48;;;;;;;4.10;2.10;;;4.50;98.00;;;;;;5011526;28;20447;-68
2023/11/12 04:32:15;;;;;;;2.93;2.00;;;4.60;98.00;;;;;;5011683;28;20450;-68
2023/11/12 04:34:43;;;;;;;3.40;2.23;;;4.60;98.00;;;;;;5011480;28;20835;-67
2023/11/12 04:37:10;;;;;;;4.53;2.30;;;4.40;98.00;;;;;;5011590;28;20495;-68
2023/11/12 04:39:39;;;;;;;4.60;2.60;;;4.30;98.00;;;;;;5010220;28;20492;-69
2023/11/12 04:42:07;;;;;;;7.10;2.50;;;4.30;98.00;;;;;;5010597;28;20965;-67
2023/11/12 04:44:37;;;;;;;3.53;2.30;;;4.30;98.00;;;;;;5011766;28;20469;-67
2023/11/12 04:47:05;;;;;;;4.50;2.07;;;4.20;98.00;;;;;;5011655;28;20456;-68
2023/11/12 04:49:32;;;;;;;4.30;2.13;;;4.30;98.00;;;;;;5011574;28;20985;-68
2023/11/12 04:52:00;;;;;;;5.50;2.47;;;4.20;98.00;;;;;;5011623;28;20457;-67
2023/11/12 04:54:27;;;;;;;1.90;1.80;;;4.10;98.00;;;;;;5011415;28;20505;-68
2023/11/12 04:56:55;;;;;;;3.53;2.20;;;4.30;98.00;;;;;;5011582;28;20457;-67
2023/11/12 04:59:23;;;;;;;2.23;1.67;;;4.30;98.00;;;;;;5011465;28;20507;-67
2023/11/12 05:01:50;;;;;;;4.50;2.20;;;4.30;98.00;;;;;;5011559;28;20523;-68
2023/11/12 05:04:17;;;;;;;4.20;2.13;;;4.20;98.00;;;;;;5011493;28;20490;-67
2023/11/12 05:06:45;;;;;;;2.63;1.90;;;4.10;98.00;;;;;;5011512;28;20462;-68
2023/11/12 05:09:12;;;;;;;2.40;1.70;;;4.20;98.00;;;;;;5010155;28;20449;-68
2023/11/12 05:11:42;;;;;;;2.30;1.90;;;4.30;98.00;;;;;;5011402;28;20455;-68
2023/11/12 05:14:11;;;;;;;2.83;1.90;;;4.30;98.00;;;;;;5011467;28;20522;-68
2023/11/12 05:16:43;;;;;;;2.43;1.90;;;4.30;98.00;;;;;;5013047;28;20930;-68
2023/11/12 05:19:10;;;;;;;3.37;1.97;;;4.30;98.00;;;;;;5014923;28;20992;-67
2023/11/12 05:21:37;;;;;;;3.60;1.90;;;4.20;98.00;;;;;;5014929;28;20518;-67
2023/11/12 05:24:04;;;;;;;2.83;1.80;;;4.10;98.00;;;;;;5014905;28;20449;-69
2023/11/12 05:26:32;;;;;;;3.10;1.67;;;4.00;98.00;;;;;;5014779;28;20466;-68
2023/11/12 05:28:59;;;;;;;2.70;2.20;;;4.00;98.00;;;;;;5014738;28;20546;-68
2023/11/12 05:31:27;;;;;;;2.53;1.80;;;4.00;98.00;;;;;;5014753;28;20457;-67
2023/11/12 05:33:54;;;;;;;2.70;1.80;;;4.00;98.00;;;;;;5014742;28;20451;-67
2023/11/12 05:36:21;;;;;;;4.73;2.27;;;4.00;98.00;;;;;;5014745;28;20463;-70
2023/11/12 05:38:48;;;;;;;4.13;2.03;;;4.00;98.00;;;;;;5013323;28;20463;-68
2023/11/12 05:41:16;;;;;;;2.50;1.90;;;4.00;98.00;;;;;;5014320;28;20514;-67
2023/11/12 05:43:43;;;;;;;2.57;1.90;;;3.90;98.00;;;;;;5014499;28;20452;-67
2023/11/12 05:46:10;;;;;;;4.27;2.10;;;3.80;98.00;;;;;;5012900;28;20457;-68
2023/11/12 05:48:39;;;;;;;3.27;2.03;;;3.70;98.00;;;;;;5014106;28;20969;-67
2023/11/12 05:51:08;;;;;;;2.50;1.83;;;3.70;98.00;;;;;;5014066;28;20462;-66
2023/11/12 05:53:36;;;;;;;3.53;2.20;;;3.80;98.00;;;;;;5012846;28;20873;-67
2023/11/12 05:56:05;;;;;;;4.57;2.47;;;3.80;98.00;;;;;;5014004;28;20456;-67
2023/11/12 05:58:32;;;;;;;3.20;2.10;;;3.80;98.00;;;;;;5014101;28;20457;-68
2023/11/12 06:00:59;;;;;;;4.27;2.30;;;3.70;98.00;;;;;;5013692;28;20511;-67
2023/11/12 06:03:26;;;;;;;3.60;2.00;;;3.70;98.00;;;;;;5013804;28;20460;-67
2023/11/12 06:05:54;;;;;;;3.70;1.90;;;3.70;98.00;;;;;;5013610;28;20947;-68
2023/11/12 06:08:22;;;;;;;6.27;2.10;;;3.80;98.00;;;;;;5013724;28;20482;-68
2023/11/12 06:10:50;;;;;;;2.97;2.03;;;3.80;98.00;;;;;;5013738;28;20481;-68
2023/11/12 06:13:17;;;;;;;3.33;2.00;;;3.90;98.00;;;;;;5013603;28;20467;-68
2023/11/12 06:15:44;;;;;;;3.03;2.00;;;3.80;98.00;;;;;;5013274;28;20452;-68
2023/11/12 06:18:11;;;;;;;4.83;2.27;;;3.60;98.00;;;;;;5013631;28;20456;-67
2023/11/12 06:20:38;;;;;;;3.30;2.10;;;3.50;98.00;;;;;;5013521;28;20520;-67
2023/11/12 06:23:06;;;;;;;5.90;2.10;;;3.60;98.00;;;;;;5013563;28;20459;-69
2023/11/12 06:25:34;;;;;;;3.50;2.17;;;3.60;98.00;;;;;;5013462;28;20449;-68
2023/11/12 06:28:01;;;;;;;2.80;2.00;;;3.50;98.00;;;;;;5011799;28;20477;-67
2023/11/12 06:30:28;;;;;;;3.50;2.17;;;3.40;98.00;;;;;;5013664;28;20458;-68
2023/11/12 06:32:55;;;;;;;3.53;2.27;;;3.30;98.00;;;;;;5013464;28;20465;-68
2023/11/12 06:35:22;;;;;;;3.53;2.27;;;3.20;98.00;;;;;;5013273;28;20974;-67
2023/11/12 06:37:49;;;;;;;5.03;2.50;;;3.40;98.00;;;;;;5013139;28;20450;-68
2023/11/12 06:40:18;;;;;;;3.80;2.43;;;3.40;98.00;;;;;;5013164;28;20942;-68
2023/11/12 06:42:45;;;;;;;3.67;2.00;;;3.50;98.00;;;;;;5013256;28;20462;-67
2023/11/12 06:45:13;;;;;;;4.47;2.50;;;3.40;98.00;;;;;;5013237;28;20968;-67
2023/11/12 06:47:40;;;;;;;3.67;2.30;;;3.40;98.00;;;;;;5013247;28;20553;-68
2023/11/12 06:50:09;;;;;;;6.57;2.93;;;3.30;98.00;;;;;;5013002;28;20838;-67
2023/11/12 06:52:36;;;;;;;4.43;2.97;;;3.30;98.00;;;;;;5013074;28;21142;-67
2023/11/12 06:55:04;;;;;;;4.87;2.90;;;3.40;98.00;;;;;;5012936;28;20465;-68
2023/11/12 06:57:33;;;;;;;4.87;2.70;;;3.50;98.00;;;;;;5011812;28;20453;-67
2023/11/12 07:00:03;;;;;;;3.90;2.60;;;3.60;98.00;;;;;;5013005;28;21047;-63
2023/11/12 07:02:31;;;;;;;4.67;2.43;;;3.70;98.00;;;;;;5013041;28;20494;-63
2023/11/12 07:04:58;;;;;;;4.33;2.50;;;3.80;98.00;;;;;;5012784;28;20448;-63
2023/11/12 07:07:25;;;;;;;3.90;2.30;;;3.90;98.00;;;;;;5013062;28;20494;-63
2023/11/12 07:09:52;;;;;;;5.37;2.57;;;3.90;98.00;;;;;;5012703;28;20448;-63
2023/11/12 07:12:19;;;;;;;2.17;1.73;;;4.00;98.00;;;;;;5011673;28;20460;-63
2023/11/12 07:14:48;;;;;;;6.53;2.90;;;4.10;98.00;;;;;;5012991;28;20932;-66
2023/11/12 07:17:15;;;;;;;6.90;2.90;;;4.00;98.00;;;;;;5012887;28;20495;-64
2023/11/12 07:19:42;;;;;;;4.67;3.20;;;4.10;98.00;;;;;;5012691;28;20460;-64
2023/11/12 07:22:10;;;;;;;6.00;2.90;;;4.20;98.00;;;;;;5012618;28;20902;-64
2023/11/12 07:24:38;;;;;;;7.00;3.10;;;4.40;98.00;;;;;;5011606;28;20462;-64
2023/11/12 07:27:06;;;;;;;5.70;2.90;;;4.30;98.00;;;;;;5012708;28;20508;-64
2023/11/12 07:29:33;;;;;;;5.50;2.83;;;4.40;98.00;;;;;;5012089;28;20455;-64
2023/11/12 07:32:02;;;;;;;7.20;2.90;;;4.40;98.00;;;;;;5012463;28;20469;-64
2023/11/12 07:34:29;;;;;;;5.37;2.70;;;4.40;98.00;;;;;;5011100;28;20488;-64
2023/11/12 07:36:56;;;;;;;5.67;2.93;;;4.40;98.00;;;;;;5012195;28;20969;-63
2023/11/12 07:39:23;;;;;;;6.40;2.93;;;4.40;98.00;;;;;;5011622;28;20959;-63
2023/11/12 07:41:51;;;;;;;7.17;3.17;;;4.40;98.00;;;;;;5011117;28;20491;-64
2023/11/12 07:44:18;;;;;;;5.77;3.03;;;4.60;98.00;;;;;;5012270;28;20478;-63
2023/11/12 07:46:45;;;;;;;6.77;3.20;;;4.40;98.00;;;;;;5012114;28;20453;-63
2023/11/12 07:49:15;;;;;;;18.10;6.33;;;4.30;98.00;;;;;;5012138;28;20461;-64
2023/11/12 07:51:42;;;;;;;16.23;6.20;;;4.30;98.00;;;;;;5012321;28;20792;-64
2023/11/12 07:54:09;;;;;;;5.53;3.00;;;4.50;98.00;;;;;;5011980;28;20453;-64
2023/11/12 07:56:37;;;;;;;6.53;3.67;;;4.50;98.00;;;;;;5012269;28;20452;-64
2023/11/12 07:59:04;;;;;;;8.07;4.03;;;4.70;98.00;;;;;;5012129;28;20467;-63
2023/11/12 08:01:31;;;;;;;8.23;4.50;;;4.80;98.00;;;;;;5011953;28;20550;-64
2023/11/12 08:03:58;;;;;;;7.17;3.97;;;4.60;98.00;;;;;;5010666;28;20449;-63
2023/11/12 08:06:35;;;;;;;13.60;6.80;;;4.50;98.00;;;;;;5012048;28;20458;-64
2023/11/12 08:09:02;;;;;;;27.20;9.07;;;4.50;98.00;;;;;;5010792;28;20460;-64
2023/11/12 08:11:31;;;;;;;19.93;5.77;;;4.60;98.00;;;;;;5011915;28;20459;-64
2023/11/12 08:13:58;;;;;;;9.67;4.97;;;4.60;98.00;;;;;;5011730;28;20475;-63
2023/11/12 08:16:25;;;;;;;10.80;4.67;;;4.70;98.00;;;;;;5012264;28;20457;-64
2023/11/12 08:18:52;;;;;;;9.03;4.10;;;5.00;98.00;;;;;;5012027;28;20462;-63
2023/11/12 08:21:19;;;;;;;8.80;3.83;;;5.10;98.00;;;;;;5011896;28;20488;-64
2023/11/12 08:23:48;;;;;;;7.60;4.10;;;5.10;98.00;;;;;;5011752;28;20509;-64
2023/11/12 08:26:15;;;;;;;9.23;4.07;;;5.10;98.00;;;;;;5012061;28;20480;-64
2023/11/12 08:28:42;;;;;;;6.43;3.63;;;5.20;98.00;;;;;;5011854;28;20529;-64
2023/11/12 08:31:09;;;;;;;7.87;3.50;;;5.40;98.00;;;;;;5206570;23;20494;-64
2023/11/12 08:33:38;;;;;;;7.53;3.57;;;5.50;98.00;;;;;;5012001;28;20459;-64
2023/11/12 08:36:06;;;;;;;8.00;3.40;;;5.70;98.00;;;;;;5012047;28;20466;-64
2023/11/12 08:38:35;;;;;;;7.27;3.77;;;5.80;98.00;;;;;;5011793;28;20458;-64
2023/11/12 08:41:05;;;;;;;6.20;3.77;;;5.80;98.00;;;;;;5011762;28;20962;-64
2023/11/12 08:43:32;;;;;;;6.33;3.10;;;5.70;98.00;;;;;;5012015;28;20468;-64
2023/11/12 08:45:59;;;;;;;6.97;3.47;;;5.80;98.00;;;;;;5011900;28;20467;-64
2023/11/12 08:48:31;;;;;;;7.03;3.60;;;5.80;98.00;;;;;;5011665;28;20457;-64
2023/11/12 08:51:01;;;;;;;7.00;3.87;;;5.80;98.00;;;;;;5013675;28;20502;-64
2023/11/12 08:56:06;;;;;;;10.67;4.03;;;6.20;98.00;;;;;;5039651;22;20535;-61
2023/11/12 08:58:33;;;;;;;8.20;3.53;;;6.10;98.00;;;;;;5033796;28;20470;-61
2023/11/12 09:01:03;;;;;;;10.97;4.40;;;6.20;98.00;;;;;;5033969;28;20504;-61
2023/11/12 09:03:30;;;;;;;5.70;3.93;;;6.30;98.00;;;;;;5034490;28;20633;-61
2023/11/12 09:05:58;;;;;;;7.30;3.60;;;6.40;98.00;;;;;;5034290;28;20468;-61
2023/11/12 09:08:25;;;;;;;7.60;3.90;;;6.40;98.00;;;;;;5021639;28;20454;-61
2023/11/12 09:10:52;;;;;;;5.90;3.53;;;6.60;98.00;;;;;;5014212;28;20455;-61
2023/11/12 09:13:21;;;;;;;8.90;4.00;;;6.60;98.00;;;;;;5014298;28;20555;-61
2023/11/12 09:15:49;;;;;;;6.43;3.50;;;6.50;98.00;;;;;;5014178;28;20456;-61
2023/11/12 09:18:17;;;;;;;6.37;3.63;;;6.40;98.00;;;;;;5013986;28;21252;-61
2023/11/12 09:20:45;;;;;;;8.67;4.20;;;6.40;98.00;;;;;;5014089;28;20452;-61
2023/11/12 09:23:12;;;;;;;9.50;4.40;;;6.30;98.00;;;;;;5014138;28;20488;-61
2023/11/12 09:25:39;;;;;;;9.43;4.10;;;6.50;98.00;;;;;;5012665;28;20498;-61
2023/11/12 09:28:06;;;;;;;11.53;5.43;;;6.40;98.00;;;;;;5013890;28;20945;-61
2023/11/12 09:30:35;;;;;;;6.67;3.90;;;6.40;98.00;;;;;;5013739;28;20462;-61
2023/11/12 09:33:04;;;;;;;11.47;4.70;;;6.30;98.00;;;;;;5013749;28;20449;-61
2023/11/12 09:35:31;;;;;;;8.37;4.50;;;6.30;98.00;;;;;;5016472;28;20476;-61
2023/11/12 09:37:58;;;;;;;14.37;5.13;;;6.30;98.00;;;;;;5033452;28;20957;-61
2023/11/12 09:40:29;;;;;;;8.03;3.80;;;6.20;98.00;;;;;;5032169;28;20486;-61
2023/11/12 09:42:57;;;;;;;7.97;4.43;;;6.20;98.00;;;;;;5033331;28;20488;-61
2023/11/12 09:45:27;;;;;;;6.50;3.70;;;6.10;98.00;;;;;;5033421;28;20490;-61
2023/11/12 09:48:07;;;;;;;8.43;3.70;;;6.10;98.00;;;;;;5033336;28;20941;-61
2023/11/12 09:50:42;;;;;;;10.00;4.13;;;6.30;98.00;;;;;;5033391;28;20452;-61
2023/11/12 09:53:09;;;;;;;7.00;4.20;;;6.40;98.00;;;;;;5033337;28;20486;-61
2023/11/12 09:55:36;;;;;;;6.20;3.60;;;6.50;98.00;;;;;;5032098;28;20465;-61
2023/11/12 09:58:04;;;;;;;8.47;3.60;;;6.40;98.00;;;;;;5033270;28;20454;-61
2023/11/12 10:00:35;;;;;;;6.63;3.67;;;6.40;98.00;;;;;;5015820;28;20465;-61
2023/11/12 10:03:07;;;;;;;10.10;3.87;;;6.60;98.00;;;;;;5032257;28;20569;-61
2023/11/12 10:05:35;;;;;;;6.77;3.50;;;6.80;98.00;;;;;;5032653;28;20956;-61
2023/11/12 10:08:03;;;;;;;5.50;3.53;;;7.00;98.00;;;;;;5032935;28;20497;-61
2023/11/12 10:10:30;;;;;;;7.00;3.53;;;7.10;98.00;;;;;;5032186;28;20457;-61
2023/11/12 10:12:58;;;;;;;9.67;4.30;;;7.20;98.00;;;;;;5032895;28;20484;-61
2023/11/12 10:15:27;;;;;;;5.33;3.60;;;7.40;98.00;;;;;;5032984;28;20467;-61
2023/11/12 10:17:58;;;;;;;7.47;4.20;;;7.70;98.00;;;;;;5032932;28;20873;-61
2023/11/12 10:20:28;;;;;;;7.57;3.90;;;7.70;98.00;;;;;;5032715;28;20464;-61
2023/11/12 10:22:56;;;;;;;8.23;3.47;;;7.80;98.00;;;;;;5032830;28;20549;-61
2023/11/12 10:25:40;;;;;;;9.17;4.07;;;8.00;98.00;;;;;;5032636;28;20484;-61
2023/11/12 10:28:09;;;;;;;6.50;3.97;;;8.00;98.00;;;;;;5032857;28;20939;-61
2023/11/12 10:30:37;;;;;;;8.80;4.33;;;8.00;98.00;;;;;;5032719;28;20455;-61
2023/11/12 10:33:23;;;;;;;6.70;3.77;;;8.00;98.00;;;;;;5031788;28;20904;-61
2023/11/12 10:35:52;;;;;;;7.17;3.67;;;8.10;98.00;;;;;;5032577;28;20467;-61
2023/11/12 10:38:19;;;;;;;8.17;3.30;;;8.10;98.00;;;;;;5032923;28;20458;-61
2023/11/12 10:41:02;;;;;;;6.60;3.70;;;8.10;98.00;;;;;;5032990;28;20858;-61
2023/11/12 10:43:31;;;;;;;7.67;3.20;;;8.00;98.00;;;;;;5032516;28;20493;-61
2023/11/12 10:46:00;;;;;;;7.27;3.67;;;8.10;98.00;;;;;;5032406;28;21015;-61
2023/11/12 10:48:33;;;;;;;6.43;3.40;;;7.90;98.00;;;;;;5032512;28;20839;-61
2023/11/12 10:51:03;;;;;;;6.20;3.50;;;8.00;98.00;;;;;;5032257;28;20913;-61
2023/11/12 10:53:31;;;;;;;7.47;3.80;;;8.00;98.00;;;;;;5032120;28;20944;-61
2023/11/12 10:56:00;;;;;;;7.40;4.10;;;8.10;98.00;;;;;;5032491;28;20470;-61
2023/11/12 10:58:29;;;;;;;7.10;3.57;;;8.10;98.00;;;;;;5032141;28;20523;-61
2023/11/12 11:00:58;;;;;;;7.97;3.97;;;8.20;98.00;;;;;;5032177;28;20458;-61
2023/11/12 11:03:28;;;;;;;5.70;3.20;;;8.30;98.00;;;;;;5032027;28;20516;-61
2023/11/12 11:05:56;;;;;;;6.00;3.70;;;8.40;98.00;;;;;;5031968;28;20550;-61
2023/11/12 11:08:26;;;;;;;5.67;3.33;;;8.40;98.00;;;;;;5032203;28;20458;-61
2023/11/12 11:10:54;;;;;;;12.70;3.80;;;8.50;98.00;;;;;;5031795;28;20533;-61
2023/11/12 11:13:25;;;;;;;9.70;3.87;;;8.60;98.00;;;;;;5031651;28;20818;-61
2023/11/12 11:15:54;;;;;;;11.83;4.30;;;8.70;98.00;;;;;;5032041;28;20453;-61
2023/11/12 11:18:51;;;;;;;9.00;4.53;;;8.70;98.00;;;;;;5030489;28;20454;-61
2023/11/12 11:21:19;;;;;;;12.00;4.50;;;8.80;98.00;;;;;;5019361;28;20954;-61
2023/11/12 11:26:32;;;;;;;8.97;4.20;;;8.90;98.00;;;;;;4971791;28;20471;-61
2023/11/12 11:29:16;;;;;;;10.27;4.10;;;9.10;98.00;;;;;;4972980;28;20519;-61
2023/11/12 11:32:17;;;;;;;10.87;4.40;;;9.10;98.00;;;;;;4972676;28;20455;-61
2023/11/12 11:34:45;;;;;;;8.33;3.90;;;9.20;98.00;;;;;;4972754;28;20533;-61
2023/11/12 11:37:13;;;;;;;7.90;3.60;;;9.20;98.00;;;;;;4972593;28;20453;-61
2023/11/12 11:39:41;;;;;;;7.50;3.93;;;9.20;98.00;;;;;;4972506;28;20449;-61
2023/11/12 11:42:19;;;;;;;9.00;3.80;;;9.20;98.00;;;;;;4972828;28;20488;-61
2023/11/12 11:44:52;;;;;;;8.53;4.13;;;9.20;98.00;;;;;;4972540;28;20998;-61
2023/11/12 11:47:21;;;;;;;7.00;3.53;;;9.20;98.00;;;;;;4972599;28;20496;-61
2023/11/12 11:49:50;;;;;;;6.93;3.80;;;9.00;98.00;;;;;;4972390;28;20480;-61
2023/11/12 11:52:25;;;;;;;7.53;3.80;;;8.90;98.00;;;;;;4972485;28;20457;-61
2023/11/12 11:55:02;;;;;;;5.17;3.20;;;8.90;98.00;;;;;;4972453;28;20544;-61
2023/11/12 11:57:31;;;;;;;7.83;3.17;;;9.00;98.00;;;;;;4972498;28;20454;-61
2023/11/12 11:59:59;;;;;;;5.97;3.00;;;9.10;98.00;;;;;;4972623;28;20458;-61
2023/11/12 12:02:26;;;;;;;6.23;3.40;;;9.10;98.00;;;;;;4972351;28;20493;-61
2023/11/12 12:04:57;;;;;;;5.87;3.40;;;9.10;98.00;;;;;;4972360;28;20454;-61
2023/11/12 12:07:25;;;;;;;8.63;3.43;;;9.30;98.00;;;;;;4972540;28;20813;-61
2023/11/12 12:09:53;;;;;;;6.77;3.63;;;9.40;98.00;;;;;;4972214;28;20875;-61
2023/11/12 12:12:22;;;;;;;7.40;3.10;;;9.50;98.00;;;;;;4972624;28;20462;-61
2023/11/12 12:14:51;;;;;;;3.93;2.30;;;9.50;98.00;;;;;;4972694;28;20476;-61
2023/11/12 12:17:18;;;;;;;3.77;2.20;;;9.50;98.00;;;;;;4972452;28;20491;-61
2023/11/12 12:19:51;;;;;;;4.60;2.47;;;9.50;98.00;;;;;;4972251;28;20544;-61
2023/11/12 12:22:21;;;;;;;3.77;2.30;;;9.40;98.00;;;;;;4972519;28;20487;-61
2023/11/12 12:24:49;;;;;;;6.43;2.77;;;9.40;98.00;;;;;;4972465;28;20457;-61
2023/11/12 12:27:17;;;;;;;5.43;2.60;;;9.40;98.00;;;;;;4976165;28;20460;-61
2023/11/12 12:29:47;;;;;;;4.43;2.50;;;9.40;98.00;;;;;;4976121;28;20453;-62
2023/11/12 12:32:18;;;;;;;4.20;2.50;;;9.50;98.00;;;;;;4976235;28;20460;-61
2023/11/12 12:34:56;;;;;;;10.70;3.77;;;9.50;98.00;;;;;;4976062;28;20493;-61
2023/11/12 12:37:24;;;;;;;7.27;3.30;;;9.60;98.00;;;;;;4975291;28;20457;-61
2023/11/12 12:39:57;;;;;;;5.47;2.60;;;9.60;98.00;;;;;;4975917;28;20459;-62
2023/11/12 12:42:27;;;;;;;2.73;1.93;;;9.60;98.00;;;;;;4975843;28;20499;-61
2023/11/12 12:44:57;;;;;;;4.43;2.50;;;9.60;98.00;;;;;;4975786;28;20541;-61
2023/11/12 12:47:37;;;;;;;3.93;2.27;;;9.60;98.00;;;;;;4975989;28;20477;-62
2023/11/12 12:50:22;;;;;;;3.87;2.53;;;9.50;98.00;;;;;;4975612;28;20450;-61
2023/11/12 12:52:51;;;;;;;4.33;2.67;;;9.50;98.00;;;;;;4975771;28;20444;-61
2023/11/12 12:55:20;;;;;;;3.43;2.07;;;9.40;98.00;;;;;;4975624;28;20445;-61
2023/11/12 12:57:50;;;;;;;3.33;2.23;;;9.50;98.00;;;;;;4976003;28;20814;-61
2023/11/12 13:00:20;;;;;;;5.10;2.50;;;9.40;98.00;;;;;;4975629;28;20492;-61
2023/11/12 13:02:51;;;;;;;4.80;2.60;;;9.50;98.00;;;;;;4975598;28;20523;-61
2023/11/12 13:05:21;;;;;;;3.60;2.20;;;9.50;98.00;;;;;;4975426;28;20488;-62
2023/11/12 13:07:50;;;;;;;3.30;2.37;;;9.50;98.00;;;;;;4975614;28;20452;-61